sensor_id;sensor_type;location;lat;lon;timestamp;P1;durP1;ratioP1;P2;durP2;ratioP2
30818;SDS011;17546;42.674;23.284;2024-02-15T00:00:39;17.35;;;8.60;;
30818;SDS011;17546;42.674;23.284;2024-02-15T00:03:05;14.93;;;8.70;;
30818;SDS011;17546;42.674;23.284;2024-02-15T00:05:33;17.25;;;9.15;;
30818;SDS011;17546;42.674;23.284;2024-02-15T00:08:02;20.10;;;9.23;;
30818;SDS011;17546;42.674;23.284;2024-02-15T00:10:28;17.77;;;9.60;;
30818;SDS011;17546;42.674;23.284;2024-02-15T00:12:53;16.85;;;9.25;;
30818;SDS011;17546;42.674;23.284;2024-02-15T00:15:19;16.08;;;8.77;;
30818;SDS011;17546;42.674;23.284;2024-02-15T00:17:45;16.17;;;9.25;;
30818;SDS011;17546;42.674;23.284;2024-02-15T00:20:12;15.15;;;9.38;;
30818;SDS011;17546;42.674;23.284;2024-02-15T00:22:38;17.85;;;9.23;;
30818;SDS011;17546;42.674;23.284;2024-02-15T00:25:06;16.00;;;9.13;;
30818;SDS011;17546;42.674;23.284;2024-02-15T00:27:34;15.55;;;9.07;;
30818;SDS011;17546;42.674;23.284;2024-02-15T00:30:03;19.92;;;8.73;;
30818;SDS011;17546;42.674;23.284;2024-02-15T00:32:30;17.42;;;8.80;;
30818;SDS011;17546;42.674;23.284;2024-02-15T00:34:55;15.82;;;9.52;;
30818;SDS011;17546;42.674;23.284;2024-02-15T00:37:24;16.58;;;8.75;;
30818;SDS011;17546;42.674;23.284;2024-02-15T00:39:49;17.00;;;8.70;;
30818;SDS011;17546;42.674;23.284;2024-02-15T00:42:15;16.10;;;8.85;;
30818;SDS011;17546;42.674;23.284;2024-02-15T00:44:40;16.05;;;8.88;;
30818;SDS011;17546;42.674;23.284;2024-02-15T00:47:07;16.48;;;8.63;;
30818;SDS011;17546;42.674;23.284;2024-02-15T00:49:34;17.23;;;8.93;;
30818;SDS011;17546;42.674;23.284;2024-02-15T00:52:00;15.35;;;8.20;;
30818;SDS011;17546;42.674;23.284;2024-02-15T00:54:26;17.55;;;8.73;;
30818;SDS011;17546;42.674;23.284;2024-02-15T00:56:51;17.80;;;8.75;;
30818;SDS011;17546;42.674;23.284;2024-02-15T00:59:17;16.60;;;9.30;;
30818;SDS011;17546;42.674;23.284;2024-02-15T01:01:43;17.77;;;8.60;;
30818;SDS011;17546;42.674;23.284;2024-02-15T01:04:09;17.50;;;8.77;;
30818;SDS011;17546;42.674;23.284;2024-02-15T01:06:35;17.35;;;8.93;;
30818;SDS011;17546;42.674;23.284;2024-02-15T01:09:01;15.00;;;8.80;;
30818;SDS011;17546;42.674;23.284;2024-02-15T01:11:28;17.90;;;8.48;;
30818;SDS011;17546;42.674;23.284;2024-02-15T01:13:55;15.50;;;8.10;;
30818;SDS011;17546;42.674;23.284;2024-02-15T01:16:20;17.10;;;8.13;;
30818;SDS011;17546;42.674;23.284;2024-02-15T01:18:49;20.10;;;9.27;;
30818;SDS011;17546;42.674;23.284;2024-02-15T01:21:15;18.35;;;8.95;;
30818;SDS011;17546;42.674;23.284;2024-02-15T01:23:42;17.85;;;9.13;;
30818;SDS011;17546;42.674;23.284;2024-02-15T01:26:08;14.93;;;9.02;;
30818;SDS011;17546;42.674;23.284;2024-02-15T01:28:33;13.40;;;8.00;;
30818;SDS011;17546;42.674;23.284;2024-02-15T01:30:59;14.30;;;9.25;;
30818;SDS011;17546;42.674;23.284;2024-02-15T01:33:24;15.77;;;8.50;;
30818;SDS011;17546;42.674;23.284;2024-02-15T01:35:50;14.18;;;8.63;;
30818;SDS011;17546;42.674;23.284;2024-02-15T01:38:15;18.77;;;8.77;;
30818;SDS011;17546;42.674;23.284;2024-02-15T01:40:41;16.17;;;8.48;;
30818;SDS011;17546;42.674;23.284;2024-02-15T01:43:07;16.73;;;8.55;;
30818;SDS011;17546;42.674;23.284;2024-02-15T01:45:33;19.20;;;9.27;;
30818;SDS011;17546;42.674;23.284;2024-02-15T01:47:58;15.38;;;8.77;;
30818;SDS011;17546;42.674;23.284;2024-02-15T01:50:24;16.30;;;9.50;;
30818;SDS011;17546;42.674;23.284;2024-02-15T01:52:54;14.15;;;8.82;;
30818;SDS011;17546;42.674;23.284;2024-02-15T01:55:22;17.33;;;8.57;;
30818;SDS011;17546;42.674;23.284;2024-02-15T01:57:48;17.15;;;9.27;;
30818;SDS011;17546;42.674;23.284;2024-02-15T02:00:15;18.75;;;8.88;;
30818;SDS011;17546;42.674;23.284;2024-02-15T02:02:42;18.33;;;8.50;;
30818;SDS011;17546;42.674;23.284;2024-02-15T02:05:10;17.67;;;8.57;;
30818;SDS011;17546;42.674;23.284;2024-02-15T02:07:35;16.05;;;9.27;;
30818;SDS011;17546;42.674;23.284;2024-02-15T02:10:02;21.58;;;9.18;;
30818;SDS011;17546;42.674;23.284;2024-02-15T02:12:29;20.10;;;9.40;;
30818;SDS011;17546;42.674;23.284;2024-02-15T02:14:55;17.55;;;9.23;;
30818;SDS011;17546;42.674;23.284;2024-02-15T02:17:20;15.90;;;8.93;;
30818;SDS011;17546;42.674;23.284;2024-02-15T02:19:46;19.20;;;9.40;;
30818;SDS011;17546;42.674;23.284;2024-02-15T02:22:14;20.55;;;9.15;;
30818;SDS011;17546;42.674;23.284;2024-02-15T02:27:34;21.15;;;9.65;;
30818;SDS011;17546;42.674;23.284;2024-02-15T02:30:12;18.02;;;8.85;;
30818;SDS011;17546;42.674;23.284;2024-02-15T02:32:46;20.52;;;9.63;;
30818;SDS011;17546;42.674;23.284;2024-02-15T02:35:11;20.35;;;9.50;;
30818;SDS011;17546;42.674;23.284;2024-02-15T02:37:38;17.08;;;9.10;;
30818;SDS011;17546;42.674;23.284;2024-02-15T02:40:05;17.67;;;9.18;;
30818;SDS011;17546;42.674;23.284;2024-02-15T02:42:35;15.73;;;8.82;;
30818;SDS011;17546;42.674;23.284;2024-02-15T02:45:01;18.25;;;9.00;;
30818;SDS011;17546;42.674;23.284;2024-02-15T02:47:27;19.20;;;8.95;;
30818;SDS011;17546;42.674;23.284;2024-02-15T02:49:52;16.60;;;9.45;;
30818;SDS011;17546;42.674;23.284;2024-02-15T02:52:18;16.23;;;9.63;;
30818;SDS011;17546;42.674;23.284;2024-02-15T02:54:43;20.08;;;10.25;;
30818;SDS011;17546;42.674;23.284;2024-02-15T02:57:09;19.17;;;9.48;;
30818;SDS011;17546;42.674;23.284;2024-02-15T02:59:34;19.38;;;9.40;;
30818;SDS011;17546;42.674;23.284;2024-02-15T03:02:01;17.05;;;9.43;;
30818;SDS011;17546;42.674;23.284;2024-02-15T03:04:28;18.13;;;9.55;;
30818;SDS011;17546;42.674;23.284;2024-02-15T03:06:54;21.10;;;9.98;;
30818;SDS011;17546;42.674;23.284;2024-02-15T03:09:22;18.65;;;10.00;;
30818;SDS011;17546;42.674;23.284;2024-02-15T03:11:48;17.95;;;9.85;;
30818;SDS011;17546;42.674;23.284;2024-02-15T03:14:14;18.50;;;10.00;;
30818;SDS011;17546;42.674;23.284;2024-02-15T03:16:40;18.90;;;9.77;;
30818;SDS011;17546;42.674;23.284;2024-02-15T03:19:05;17.77;;;10.13;;
30818;SDS011;17546;42.674;23.284;2024-02-15T03:21:34;23.25;;;11.35;;
30818;SDS011;17546;42.674;23.284;2024-02-15T03:23:59;20.15;;;10.98;;
30818;SDS011;17546;42.674;23.284;2024-02-15T03:26:31;22.63;;;10.80;;
30818;SDS011;17546;42.674;23.284;2024-02-15T03:29:05;19.67;;;11.35;;
30818;SDS011;17546;42.674;23.284;2024-02-15T03:31:35;20.55;;;11.02;;
30818;SDS011;17546;42.674;23.284;2024-02-15T03:34:04;21.65;;;12.00;;
30818;SDS011;17546;42.674;23.284;2024-02-15T03:36:30;18.10;;;10.25;;
30818;SDS011;17546;42.674;23.284;2024-02-15T03:38:55;20.95;;;11.13;;
30818;SDS011;17546;42.674;23.284;2024-02-15T03:41:21;22.23;;;11.50;;
30818;SDS011;17546;42.674;23.284;2024-02-15T03:43:47;21.40;;;12.00;;
30818;SDS011;17546;42.674;23.284;2024-02-15T03:46:12;27.05;;;12.00;;
30818;SDS011;17546;42.674;23.284;2024-02-15T03:48:40;20.92;;;11.57;;
30818;SDS011;17546;42.674;23.284;2024-02-15T03:51:09;22.75;;;12.40;;
30818;SDS011;17546;42.674;23.284;2024-02-15T03:53:34;20.17;;;11.57;;
30818;SDS011;17546;42.674;23.284;2024-02-15T03:56:03;21.85;;;11.75;;
30818;SDS011;17546;42.674;23.284;2024-02-15T03:58:29;25.67;;;11.43;;
30818;SDS011;17546;42.674;23.284;2024-02-15T04:00:57;21.17;;;11.80;;
30818;SDS011;17546;42.674;23.284;2024-02-15T04:03:23;19.60;;;11.25;;
30818;SDS011;17546;42.674;23.284;2024-02-15T04:05:49;17.85;;;10.52;;
30818;SDS011;17546;42.674;23.284;2024-02-15T04:08:14;19.45;;;10.93;;
30818;SDS011;17546;42.674;23.284;2024-02-15T04:10:43;22.55;;;11.68;;
30818;SDS011;17546;42.674;23.284;2024-02-15T04:13:10;22.05;;;11.80;;
30818;SDS011;17546;42.674;23.284;2024-02-15T04:15:36;25.55;;;12.60;;
30818;SDS011;17546;42.674;23.284;2024-02-15T04:18:02;29.65;;;12.20;;
30818;SDS011;17546;42.674;23.284;2024-02-15T04:20:28;25.77;;;11.63;;
30818;SDS011;17546;42.674;23.284;2024-02-15T04:22:54;21.50;;;10.98;;
30818;SDS011;17546;42.674;23.284;2024-02-15T04:25:21;23.10;;;11.75;;
30818;SDS011;17546;42.674;23.284;2024-02-15T04:27:52;19.50;;;10.65;;
30818;SDS011;17546;42.674;23.284;2024-02-15T04:30:18;20.65;;;10.98;;
30818;SDS011;17546;42.674;23.284;2024-02-15T04:32:47;20.92;;;10.82;;
30818;SDS011;17546;42.674;23.284;2024-02-15T04:35:12;18.67;;;10.73;;
30818;SDS011;17546;42.674;23.284;2024-02-15T04:37:39;21.83;;;11.63;;
30818;SDS011;17546;42.674;23.284;2024-02-15T04:40:05;22.70;;;12.05;;
30818;SDS011;17546;42.674;23.284;2024-02-15T04:42:38;20.98;;;11.90;;
30818;SDS011;17546;42.674;23.284;2024-02-15T04:45:09;21.80;;;11.95;;
30818;SDS011;17546;42.674;23.284;2024-02-15T04:47:37;20.70;;;10.48;;
30818;SDS011;17546;42.674;23.284;2024-02-15T04:50:03;19.25;;;11.38;;
30818;SDS011;17546;42.674;23.284;2024-02-15T04:52:31;18.88;;;10.45;;
30818;SDS011;17546;42.674;23.284;2024-02-15T04:54:56;23.48;;;11.43;;
30818;SDS011;17546;42.674;23.284;2024-02-15T04:57:25;24.65;;;11.40;;
30818;SDS011;17546;42.674;23.284;2024-02-15T04:59:54;20.80;;;12.02;;
30818;SDS011;17546;42.674;23.284;2024-02-15T05:02:20;22.38;;;11.27;;
30818;SDS011;17546;42.674;23.284;2024-02-15T05:04:47;22.15;;;12.02;;
30818;SDS011;17546;42.674;23.284;2024-02-15T05:07:12;23.27;;;12.35;;
30818;SDS011;17546;42.674;23.284;2024-02-15T05:09:42;24.67;;;11.38;;
30818;SDS011;17546;42.674;23.284;2024-02-15T05:12:07;28.42;;;11.65;;
30818;SDS011;17546;42.674;23.284;2024-02-15T05:14:33;23.52;;;12.25;;
30818;SDS011;17546;42.674;23.284;2024-02-15T05:17:01;23.98;;;11.98;;
30818;SDS011;17546;42.674;23.284;2024-02-15T05:19:27;27.63;;;11.13;;
30818;SDS011;17546;42.674;23.284;2024-02-15T05:21:52;25.83;;;11.60;;
30818;SDS011;17546;42.674;23.284;2024-02-15T05:24:18;23.33;;;11.95;;
30818;SDS011;17546;42.674;23.284;2024-02-15T05:26:45;20.52;;;11.95;;
30818;SDS011;17546;42.674;23.284;2024-02-15T05:29:17;25.58;;;11.55;;
30818;SDS011;17546;42.674;23.284;2024-02-15T05:31:43;26.05;;;12.32;;
30818;SDS011;17546;42.674;23.284;2024-02-15T05:34:10;21.15;;;11.25;;
30818;SDS011;17546;42.674;23.284;2024-02-15T05:36:36;22.98;;;11.68;;
30818;SDS011;17546;42.674;23.284;2024-02-15T05:39:03;23.83;;;11.43;;
30818;SDS011;17546;42.674;23.284;2024-02-15T05:41:30;25.58;;;12.15;;
30818;SDS011;17546;42.674;23.284;2024-02-15T05:43:55;24.08;;;12.07;;
30818;SDS011;17546;42.674;23.284;2024-02-15T05:46:22;25.25;;;11.52;;
30818;SDS011;17546;42.674;23.284;2024-02-15T05:48:49;27.77;;;12.18;;
30818;SDS011;17546;42.674;23.284;2024-02-15T05:51:16;26.70;;;12.57;;
30818;SDS011;17546;42.674;23.284;2024-02-15T05:53:42;23.08;;;11.10;;
30818;SDS011;17546;42.674;23.284;2024-02-15T05:56:09;21.58;;;11.85;;
30818;SDS011;17546;42.674;23.284;2024-02-15T05:58:38;21.17;;;10.77;;
30818;SDS011;17546;42.674;23.284;2024-02-15T06:01:07;25.48;;;11.55;;
30818;SDS011;17546;42.674;23.284;2024-02-15T06:03:35;20.80;;;10.77;;
30818;SDS011;17546;42.674;23.284;2024-02-15T06:06:03;21.73;;;11.98;;
30818;SDS011;17546;42.674;23.284;2024-02-15T06:08:33;23.08;;;11.30;;
30818;SDS011;17546;42.674;23.284;2024-02-15T06:10:59;34.72;;;12.60;;
30818;SDS011;17546;42.674;23.284;2024-02-15T06:13:25;19.45;;;11.32;;
30818;SDS011;17546;42.674;23.284;2024-02-15T06:15:51;25.25;;;12.77;;
30818;SDS011;17546;42.674;23.284;2024-02-15T06:18:22;22.60;;;11.93;;
30818;SDS011;17546;42.674;23.284;2024-02-15T06:20:53;25.33;;;11.45;;
30818;SDS011;17546;42.674;23.284;2024-02-15T06:23:19;33.80;;;12.23;;
30818;SDS011;17546;42.674;23.284;2024-02-15T06:25:46;24.38;;;12.10;;
30818;SDS011;17546;42.674;23.284;2024-02-15T06:28:16;30.00;;;11.73;;
30818;SDS011;17546;42.674;23.284;2024-02-15T06:31:04;25.10;;;11.95;;
30818;SDS011;17546;42.674;23.284;2024-02-15T06:33:49;23.33;;;13.05;;
30818;SDS011;17546;42.674;23.284;2024-02-15T06:36:33;19.98;;;11.00;;
30818;SDS011;17546;42.674;23.284;2024-02-15T06:39:17;24.20;;;11.55;;
30818;SDS011;17546;42.674;23.284;2024-02-15T06:42:08;25.17;;;12.68;;
30818;SDS011;17546;42.674;23.284;2024-02-15T06:44:36;26.15;;;12.55;;
30818;SDS011;17546;42.674;23.284;2024-02-15T06:47:03;31.48;;;12.63;;
30818;SDS011;17546;42.674;23.284;2024-02-15T06:49:29;25.27;;;12.35;;
30818;SDS011;17546;42.674;23.284;2024-02-15T06:51:54;24.33;;;12.70;;
30818;SDS011;17546;42.674;23.284;2024-02-15T06:54:21;26.05;;;11.85;;
30818;SDS011;17546;42.674;23.284;2024-02-15T06:56:47;23.35;;;11.60;;
30818;SDS011;17546;42.674;23.284;2024-02-15T06:59:13;27.30;;;12.95;;
30818;SDS011;17546;42.674;23.284;2024-02-15T07:01:40;25.00;;;12.75;;
30818;SDS011;17546;42.674;23.284;2024-02-15T07:04:07;35.95;;;13.77;;
30818;SDS011;17546;42.674;23.284;2024-02-15T07:06:35;24.13;;;12.52;;
30818;SDS011;17546;42.674;23.284;2024-02-15T07:09:07;26.30;;;12.10;;
30818;SDS011;17546;42.674;23.284;2024-02-15T07:11:32;30.35;;;11.38;;
30818;SDS011;17546;42.674;23.284;2024-02-15T07:14:01;26.13;;;12.25;;
30818;SDS011;17546;42.674;23.284;2024-02-15T07:16:27;27.58;;;11.80;;
30818;SDS011;17546;42.674;23.284;2024-02-15T07:18:53;22.50;;;12.10;;
30818;SDS011;17546;42.674;23.284;2024-02-15T07:21:21;19.63;;;10.88;;
30818;SDS011;17546;42.674;23.284;2024-02-15T07:23:52;23.25;;;12.60;;
30818;SDS011;17546;42.674;23.284;2024-02-15T07:26:19;33.08;;;13.23;;
30818;SDS011;17546;42.674;23.284;2024-02-15T07:28:45;20.30;;;11.73;;
30818;SDS011;17546;42.674;23.284;2024-02-15T07:31:13;24.33;;;11.55;;
30818;SDS011;17546;42.674;23.284;2024-02-15T07:33:39;22.98;;;11.27;;
30818;SDS011;17546;42.674;23.284;2024-02-15T07:36:08;24.65;;;11.93;;
30818;SDS011;17546;42.674;23.284;2024-02-15T07:38:33;22.83;;;11.15;;
30818;SDS011;17546;42.674;23.284;2024-02-15T07:40:59;24.33;;;11.88;;
30818;SDS011;17546;42.674;23.284;2024-02-15T07:43:25;21.00;;;9.32;;
30818;SDS011;17546;42.674;23.284;2024-02-15T07:45:51;25.00;;;11.57;;
30818;SDS011;17546;42.674;23.284;2024-02-15T07:48:17;25.52;;;11.32;;
30818;SDS011;17546;42.674;23.284;2024-02-15T07:50:42;24.77;;;12.70;;
30818;SDS011;17546;42.674;23.284;2024-02-15T07:53:09;24.25;;;11.07;;
30818;SDS011;17546;42.674;23.284;2024-02-15T07:55:36;25.00;;;11.60;;
30818;SDS011;17546;42.674;23.284;2024-02-15T07:58:03;26.63;;;11.15;;
30818;SDS011;17546;42.674;23.284;2024-02-15T08:00:29;24.58;;;11.15;;
30818;SDS011;17546;42.674;23.284;2024-02-15T08:02:55;22.63;;;11.05;;
30818;SDS011;17546;42.674;23.284;2024-02-15T08:05:22;21.63;;;11.63;;
30818;SDS011;17546;42.674;23.284;2024-02-15T08:07:48;17.92;;;10.13;;
30818;SDS011;17546;42.674;23.284;2024-02-15T08:10:14;19.98;;;10.45;;
30818;SDS011;17546;42.674;23.284;2024-02-15T08:12:41;18.90;;;10.48;;
30818;SDS011;17546;42.674;23.284;2024-02-15T08:15:10;19.40;;;10.73;;
30818;SDS011;17546;42.674;23.284;2024-02-15T08:17:40;21.20;;;10.55;;
30818;SDS011;17546;42.674;23.284;2024-02-15T08:22:38;21.63;;;9.90;;
30818;SDS011;17546;42.674;23.284;2024-02-15T08:25:08;22.23;;;11.02;;
30818;SDS011;17546;42.674;23.284;2024-02-15T08:27:39;18.30;;;9.95;;
30818;SDS011;17546;42.674;23.284;2024-02-15T08:30:08;22.23;;;10.27;;
30818;SDS011;17546;42.674;23.284;2024-02-15T08:32:38;20.73;;;10.43;;
30818;SDS011;17546;42.674;23.284;2024-02-15T08:35:07;15.98;;;8.70;;
30818;SDS011;17546;42.674;23.284;2024-02-15T08:37:35;25.17;;;10.23;;
30818;SDS011;17546;42.674;23.284;2024-02-15T08:40:03;22.67;;;10.20;;
30818;SDS011;17546;42.674;23.284;2024-02-15T08:42:35;18.80;;;10.35;;
30818;SDS011;17546;42.674;23.284;2024-02-15T08:45:04;20.67;;;10.77;;
30818;SDS011;17546;42.674;23.284;2024-02-15T08:47:30;20.35;;;10.65;;
30818;SDS011;17546;42.674;23.284;2024-02-15T08:49:55;20.83;;;10.07;;
30818;SDS011;17546;42.674;23.284;2024-02-15T08:52:21;31.73;;;11.52;;
30818;SDS011;17546;42.674;23.284;2024-02-15T08:54:46;21.67;;;10.48;;
30818;SDS011;17546;42.674;23.284;2024-02-15T08:57:12;23.88;;;11.13;;
30818;SDS011;17546;42.674;23.284;2024-02-15T08:59:38;25.70;;;10.57;;
30818;SDS011;17546;42.674;23.284;2024-02-15T09:02:04;22.60;;;10.80;;
30818;SDS011;17546;42.674;23.284;2024-02-15T09:04:30;19.42;;;11.25;;
30818;SDS011;17546;42.674;23.284;2024-02-15T09:06:56;25.20;;;10.60;;
30818;SDS011;17546;42.674;23.284;2024-02-15T09:09:22;21.40;;;11.10;;
30818;SDS011;17546;42.674;23.284;2024-02-15T09:11:47;19.38;;;11.00;;
30818;SDS011;17546;42.674;23.284;2024-02-15T09:14:13;27.73;;;11.77;;
30818;SDS011;17546;42.674;23.284;2024-02-15T09:16:38;22.05;;;11.10;;
30818;SDS011;17546;42.674;23.284;2024-02-15T09:19:04;25.10;;;11.02;;
30818;SDS011;17546;42.674;23.284;2024-02-15T09:21:31;19.52;;;10.82;;
30818;SDS011;17546;42.674;23.284;2024-02-15T09:23:58;21.02;;;9.68;;
30818;SDS011;17546;42.674;23.284;2024-02-15T09:26:24;23.60;;;10.43;;
30818;SDS011;17546;42.674;23.284;2024-02-15T09:28:50;20.27;;;9.55;;
30818;SDS011;17546;42.674;23.284;2024-02-15T09:31:16;22.52;;;11.00;;
30818;SDS011;17546;42.674;23.284;2024-02-15T09:33:41;22.00;;;9.65;;
30818;SDS011;17546;42.674;23.284;2024-02-15T09:36:07;21.45;;;10.10;;
30818;SDS011;17546;42.674;23.284;2024-02-15T09:38:33;16.95;;;9.90;;
30818;SDS011;17546;42.674;23.284;2024-02-15T09:40:58;20.33;;;10.68;;
30818;SDS011;17546;42.674;23.284;2024-02-15T09:43:24;16.77;;;9.25;;
30818;SDS011;17546;42.674;23.284;2024-02-15T09:45:51;19.98;;;9.82;;
30818;SDS011;17546;42.674;23.284;2024-02-15T09:48:18;21.52;;;10.95;;
30818;SDS011;17546;42.674;23.284;2024-02-15T09:50:44;16.20;;;8.85;;
30818;SDS011;17546;42.674;23.284;2024-02-15T09:53:12;20.48;;;8.85;;
30818;SDS011;17546;42.674;23.284;2024-02-15T09:55:39;19.20;;;8.95;;
30818;SDS011;17546;42.674;23.284;2024-02-15T09:58:08;15.52;;;8.75;;
30818;SDS011;17546;42.674;23.284;2024-02-15T10:00:34;17.58;;;9.40;;
30818;SDS011;17546;42.674;23.284;2024-02-15T10:03:00;29.35;;;16.23;;
30818;SDS011;17546;42.674;23.284;2024-02-15T10:05:30;19.65;;;9.10;;
30818;SDS011;17546;42.674;23.284;2024-02-15T10:07:56;16.98;;;8.63;;
30818;SDS011;17546;42.674;23.284;2024-02-15T10:10:25;19.05;;;8.57;;
30818;SDS011;17546;42.674;23.284;2024-02-15T10:12:52;16.88;;;8.30;;
30818;SDS011;17546;42.674;23.284;2024-02-15T10:15:35;15.80;;;8.50;;
30818;SDS011;17546;42.674;23.284;2024-02-15T10:18:02;17.88;;;9.07;;
30818;SDS011;17546;42.674;23.284;2024-02-15T10:20:33;17.67;;;9.07;;
30818;SDS011;17546;42.674;23.284;2024-02-15T10:25:28;19.23;;;8.73;;
30818;SDS011;17546;42.674;23.284;2024-02-15T10:28:04;16.70;;;8.50;;
30818;SDS011;17546;42.674;23.284;2024-02-15T10:30:34;16.55;;;8.23;;
30818;SDS011;17546;42.674;23.284;2024-02-15T10:33:01;21.52;;;8.63;;
30818;SDS011;17546;42.674;23.284;2024-02-15T10:35:27;19.45;;;8.88;;
30818;SDS011;17546;42.674;23.284;2024-02-15T10:37:54;18.98;;;8.65;;
30818;SDS011;17546;42.674;23.284;2024-02-15T10:40:33;19.40;;;9.02;;
30818;SDS011;17546;42.674;23.284;2024-02-15T10:42:59;14.10;;;8.65;;
30818;SDS011;17546;42.674;23.284;2024-02-15T10:45:27;15.18;;;7.70;;
30818;SDS011;17546;42.674;23.284;2024-02-15T10:47:56;17.52;;;8.23;;
30818;SDS011;17546;42.674;23.284;2024-02-15T10:50:24;15.43;;;9.18;;
30818;SDS011;17546;42.674;23.284;2024-02-15T10:52:56;13.75;;;8.10;;
30818;SDS011;17546;42.674;23.284;2024-02-15T10:55:29;16.70;;;8.40;;
30818;SDS011;17546;42.674;23.284;2024-02-15T10:58:05;16.98;;;8.88;;
30818;SDS011;17546;42.674;23.284;2024-02-15T11:00:32;13.35;;;8.25;;
30818;SDS011;17546;42.674;23.284;2024-02-15T11:03:03;13.77;;;7.57;;
30818;SDS011;17546;42.674;23.284;2024-02-15T11:05:33;14.05;;;7.88;;
30818;SDS011;17546;42.674;23.284;2024-02-15T11:08:01;16.23;;;7.93;;
30818;SDS011;17546;42.674;23.284;2024-02-15T11:10:29;16.80;;;8.45;;
30818;SDS011;17546;42.674;23.284;2024-02-15T11:12:55;12.98;;;7.57;;
30818;SDS011;17546;42.674;23.284;2024-02-15T11:18:31;16.52;;;7.00;;
30818;SDS011;17546;42.674;23.284;2024-02-15T11:21:13;13.68;;;7.30;;
30818;SDS011;17546;42.674;23.284;2024-02-15T11:23:40;16.38;;;7.43;;
30818;SDS011;17546;42.674;23.284;2024-02-15T11:29:47;13.85;;;6.63;;
30818;SDS011;17546;42.674;23.284;2024-02-15T11:40:15;12.45;;;6.47;;
30818;SDS011;17546;42.674;23.284;2024-02-15T11:42:42;12.18;;;6.28;;
30818;SDS011;17546;42.674;23.284;2024-02-15T11:45:15;9.95;;;5.95;;
30818;SDS011;17546;42.674;23.284;2024-02-15T11:47:43;10.93;;;5.38;;
30818;SDS011;17546;42.674;23.284;2024-02-15T11:50:16;23.15;;;6.93;;
30818;SDS011;17546;42.674;23.284;2024-02-15T11:52:47;15.10;;;7.40;;
30818;SDS011;17546;42.674;23.284;2024-02-15T11:55:17;14.43;;;7.85;;
30818;SDS011;17546;42.674;23.284;2024-02-15T11:57:56;11.13;;;6.57;;
30818;SDS011;17546;42.674;23.284;2024-02-15T12:00:29;12.93;;;7.30;;
30818;SDS011;17546;42.674;23.284;2024-02-15T12:03:15;12.82;;;6.38;;
30818;SDS011;17546;42.674;23.284;2024-02-15T12:05:59;9.98;;;6.38;;
30818;SDS011;17546;42.674;23.284;2024-02-15T12:08:47;13.80;;;6.15;;
30818;SDS011;17546;42.674;23.284;2024-02-15T12:11:32;11.60;;;6.18;;
30818;SDS011;17546;42.674;23.284;2024-02-15T12:14:17;13.73;;;5.97;;
30818;SDS011;17546;42.674;23.284;2024-02-15T12:17:02;12.75;;;6.57;;
30818;SDS011;17546;42.674;23.284;2024-02-15T12:19:50;11.15;;;6.25;;
30818;SDS011;17546;42.674;23.284;2024-02-15T12:22:39;19.48;;;6.43;;
30818;SDS011;17546;42.674;23.284;2024-02-15T12:25:13;12.35;;;6.20;;
30818;SDS011;17546;42.674;23.284;2024-02-15T12:27:40;11.13;;;6.20;;
30818;SDS011;17546;42.674;23.284;2024-02-15T12:30:12;11.50;;;6.32;;
30818;SDS011;17546;42.674;23.284;2024-02-15T12:32:46;15.98;;;5.53;;
30818;SDS011;17546;42.674;23.284;2024-02-15T12:35:20;13.65;;;6.43;;
30818;SDS011;17546;42.674;23.284;2024-02-15T12:40:29;19.77;;;6.07;;
30818;SDS011;17546;42.674;23.284;2024-02-15T12:42:59;13.43;;;5.70;;
30818;SDS011;17546;42.674;23.284;2024-02-15T12:45:25;10.05;;;6.15;;
30818;SDS011;17546;42.674;23.284;2024-02-15T12:47:53;10.25;;;6.05;;
30818;SDS011;17546;42.674;23.284;2024-02-15T12:50:20;13.63;;;6.47;;
30818;SDS011;17546;42.674;23.284;2024-02-15T12:52:47;12.02;;;6.55;;
30818;SDS011;17546;42.674;23.284;2024-02-15T12:55:17;10.60;;;6.55;;
30818;SDS011;17546;42.674;23.284;2024-02-15T12:57:44;10.45;;;6.65;;
30818;SDS011;17546;42.674;23.284;2024-02-15T13:00:15;13.07;;;7.13;;
30818;SDS011;17546;42.674;23.284;2024-02-15T13:02:44;21.27;;;6.25;;
30818;SDS011;17546;42.674;23.284;2024-02-15T13:05:11;13.10;;;6.82;;
30818;SDS011;17546;42.674;23.284;2024-02-15T13:07:39;13.40;;;6.85;;
30818;SDS011;17546;42.674;23.284;2024-02-15T13:10:05;12.00;;;6.80;;
30818;SDS011;17546;42.674;23.284;2024-02-15T13:12:34;10.73;;;6.13;;
30818;SDS011;17546;42.674;23.284;2024-02-15T13:15:02;11.27;;;6.68;;
30818;SDS011;17546;42.674;23.284;2024-02-15T13:17:29;13.13;;;6.50;;
30818;SDS011;17546;42.674;23.284;2024-02-15T13:19:55;11.07;;;6.13;;
30818;SDS011;17546;42.674;23.284;2024-02-15T13:22:28;10.40;;;6.38;;
30818;SDS011;17546;42.674;23.284;2024-02-15T13:24:54;12.43;;;6.72;;
30818;SDS011;17546;42.674;23.284;2024-02-15T13:27:20;11.88;;;6.82;;
30818;SDS011;17546;42.674;23.284;2024-02-15T13:29:48;10.93;;;6.43;;
30818;SDS011;17546;42.674;23.284;2024-02-15T13:32:14;10.48;;;6.28;;
30818;SDS011;17546;42.674;23.284;2024-02-15T13:34:42;13.68;;;7.15;;
30818;SDS011;17546;42.674;23.284;2024-02-15T13:37:07;12.05;;;6.60;;
30818;SDS011;17546;42.674;23.284;2024-02-15T13:39:33;19.77;;;6.93;;
30818;SDS011;17546;42.674;23.284;2024-02-15T13:42:01;11.23;;;5.97;;
30818;SDS011;17546;42.674;23.284;2024-02-15T13:44:27;10.65;;;5.82;;
30818;SDS011;17546;42.674;23.284;2024-02-15T13:46:55;16.75;;;6.65;;
30818;SDS011;17546;42.674;23.284;2024-02-15T13:49:22;11.60;;;6.30;;
30818;SDS011;17546;42.674;23.284;2024-02-15T13:51:47;11.90;;;6.38;;
30818;SDS011;17546;42.674;23.284;2024-02-15T13:54:14;19.30;;;6.70;;
30818;SDS011;17546;42.674;23.284;2024-02-15T13:56:39;12.05;;;6.50;;
30818;SDS011;17546;42.674;23.284;2024-02-15T13:59:05;18.10;;;6.80;;
30818;SDS011;17546;42.674;23.284;2024-02-15T14:01:31;12.85;;;5.75;;
30818;SDS011;17546;42.674;23.284;2024-02-15T14:03:56;11.15;;;5.50;;
30818;SDS011;17546;42.674;23.284;2024-02-15T14:06:23;10.85;;;5.82;;
30818;SDS011;17546;42.674;23.284;2024-02-15T14:08:49;12.23;;;6.10;;
30818;SDS011;17546;42.674;23.284;2024-02-15T14:11:16;13.75;;;5.88;;
30818;SDS011;17546;42.674;23.284;2024-02-15T14:13:42;13.98;;;5.90;;
30818;SDS011;17546;42.674;23.284;2024-02-15T14:16:08;12.73;;;5.82;;
30818;SDS011;17546;42.674;23.284;2024-02-15T14:18:34;12.43;;;5.72;;
30818;SDS011;17546;42.674;23.284;2024-02-15T14:21:00;10.93;;;6.35;;
30818;SDS011;17546;42.674;23.284;2024-02-15T14:23:26;12.35;;;5.97;;
30818;SDS011;17546;42.674;23.284;2024-02-15T14:25:52;14.63;;;6.70;;
30818;SDS011;17546;42.674;23.284;2024-02-15T14:28:19;14.27;;;6.90;;
30818;SDS011;17546;42.674;23.284;2024-02-15T14:30:44;14.48;;;6.65;;
30818;SDS011;17546;42.674;23.284;2024-02-15T14:33:28;16.75;;;6.43;;
30818;SDS011;17546;42.674;23.284;2024-02-15T14:35:54;12.45;;;6.47;;
30818;SDS011;17546;42.674;23.284;2024-02-15T14:38:20;11.93;;;6.10;;
30818;SDS011;17546;42.674;23.284;2024-02-15T14:40:47;13.68;;;5.90;;
30818;SDS011;17546;42.674;23.284;2024-02-15T14:43:17;18.50;;;6.40;;
30818;SDS011;17546;42.674;23.284;2024-02-15T14:45:45;10.48;;;6.28;;